createdAt,value
2019-06-08T00:00:36.937Z,66.90
2019-06-08T00:04:41.837Z,67.52
2019-06-08T00:08:46.741Z,67.95
2019-06-08T00:12:51.636Z,67.95
2019-06-08T00:16:56.528Z,68.68
2019-06-08T00:21:01.440Z,68.68
2019-06-08T00:25:06.578Z,67.70
2019-06-08T00:29:11.516Z,67.43
2019-06-08T00:33:17.058Z,67.17
2019-06-08T00:37:22.914Z,66.92
2019-06-08T00:41:27.837Z,67.07
2019-06-08T00:45:32.739Z,67.59
2019-06-08T00:49:37.635Z,68.11
2019-06-08T00:53:42.798Z,68.72
2019-06-08T00:57:47.867Z,69.42
2019-06-08T01:01:52.764Z,69.98
2019-06-08T01:05:57.660Z,70.45
2019-06-08T01:10:02.561Z,71.31
2019-06-08T01:14:07.451Z,71.78
2019-06-08T01:18:12.378Z,71.32
2019-06-08T01:22:17.253Z,71.24
2019-06-08T01:26:22.366Z,70.84
2019-06-08T01:30:28.412Z,71.13
2019-06-08T01:34:33.496Z,70.85
2019-06-08T01:38:38.393Z,70.97
2019-06-08T01:42:43.291Z,70.85
2019-06-08T01:46:48.300Z,69.85
2019-06-08T01:50:53.741Z,69.69
2019-06-08T01:54:58.633Z,69.13
2019-06-08T01:59:03.534Z,68.92
2019-06-08T02:03:09.513Z,68.85
2019-06-08T02:07:14.406Z,68.03
2019-06-08T02:11:19.305Z,67.86
2019-06-08T02:15:25.260Z,67.35
2019-06-08T02:19:30.577Z,66.80
2019-06-08T02:23:35.480Z,67.46
2019-06-08T02:27:40.374Z,67.26
2019-06-08T02:31:47.964Z,72.25
2019-06-08T02:35:51.935Z,70.90
2019-06-08T02:39:56.837Z,72.34
2019-06-08T02:44:01.733Z,73.43
2019-06-08T02:48:06.707Z,73.06
2019-06-08T02:52:11.683Z,70.38
2019-06-08T02:56:17.940Z,71.73
2019-06-08T03:00:22.979Z,70.54
2019-06-08T03:04:32.262Z,67.12
2019-06-08T03:08:39.223Z,65.47
2019-06-08T03:12:45.919Z,65.47
2019-06-08T03:16:50.807Z,64.48
2019-06-08T03:20:55.709Z,64.55
2019-06-08T03:25:00.606Z,63.33
2019-06-08T03:29:05.511Z,63.06
2019-06-08T03:33:10.409Z,65.62
2019-06-08T03:37:15.297Z,64.06
2019-06-08T03:41:20.204Z,64.13
2019-06-08T03:45:25.103Z,62.72
2019-06-08T03:49:42.924Z,62.27
2019-06-08T03:53:37.969Z,64.79
2019-06-08T03:57:44.063Z,64.60
2019-06-08T04:01:50.001Z,63.02
2019-06-08T04:05:54.936Z,61.02
2019-06-08T04:09:59.840Z,61.92
2019-06-08T04:14:05.178Z,60.30
2019-06-08T04:18:10.071Z,61.98
2019-06-08T04:22:15.033Z,62.15
2019-06-08T04:26:19.961Z,60.80
2019-06-08T04:30:24.972Z,59.71
2019-06-08T04:34:29.870Z,59.90
2019-06-08T04:38:34.759Z,56.67
2019-06-08T04:42:41.570Z,51.78
2019-06-08T04:46:47.865Z,50.56
2019-06-08T04:50:52.886Z,50.56
2019-06-08T04:54:57.756Z,47.55
2019-06-08T04:59:02.713Z,43.92
2019-06-08T05:03:07.618Z,45.47
2019-06-08T05:07:12.506Z,44.92
2019-06-08T05:11:17.402Z,43.36
2019-06-08T05:15:22.308Z,42.25
2019-06-08T05:19:27.189Z,37.58
2019-06-08T05:23:32.083Z,35.38
2019-06-08T05:27:36.986Z,33.15
2019-06-08T05:31:43.441Z,31.47
2019-06-08T05:35:49.676Z,29.45
2019-06-08T05:39:54.735Z,28.75
2019-06-08T05:43:59.636Z,28.03
2019-06-08T05:48:04.604Z,26.20
2019-06-08T05:52:09.501Z,25.84
2019-06-08T05:56:14.409Z,25.70
2019-06-08T06:00:19.438Z,27.72
2019-06-08T06:04:24.341Z,32.15
2019-06-08T06:08:29.229Z,32.83
2019-06-08T06:12:34.128Z,36.26
2019-06-08T06:16:39.044Z,39.24
2019-06-08T06:20:45.258Z,38.38
2019-06-08T06:24:50.301Z,39.27
2019-06-08T06:28:55.196Z,39.48
2019-06-08T06:33:00.105Z,40.18
2019-06-08T06:37:05.074Z,41.28
2019-06-08T06:41:09.971Z,42.33
2019-06-08T06:45:15.196Z,44.48
2019-06-08T06:49:20.101Z,45.06
2019-06-08T06:53:25.011Z,45.15
2019-06-08T06:57:29.895Z,45.40
2019-06-08T07:01:34.793Z,45.41
2019-06-08T07:05:39.695Z,44.69
2019-06-08T07:09:44.585Z,43.86
2019-06-08T07:13:50.806Z,43.83
2019-06-08T07:17:56.809Z,43.83
2019-06-08T07:22:02.845Z,49.42
2019-06-08T07:26:07.746Z,45.51
2019-06-08T07:30:13.015Z,42.95
2019-06-08T07:34:17.965Z,42.30
2019-06-08T07:38:22.868Z,44.13
2019-06-08T07:42:27.761Z,44.24
2019-06-08T07:46:32.648Z,43.84
2019-06-08T07:50:37.549Z,43.11
2019-06-08T07:54:42.462Z,43.75
2019-06-08T07:58:49.596Z,44.22
2019-06-08T08:02:56.202Z,43.42
2019-06-08T08:07:01.120Z,44.22
2019-06-08T08:11:06.015Z,43.32
2019-06-08T08:15:11.551Z,43.39
2019-06-08T08:19:16.455Z,43.70
2019-06-08T08:23:21.356Z,43.90
2019-06-08T08:27:28.052Z,44.63
2019-06-08T08:31:32.844Z,44.22
2019-06-08T08:35:38.082Z,44.44
2019-06-08T08:39:43.229Z,45.15
2019-06-08T08:43:50.141Z,44.33
2019-06-08T08:48:10.373Z,44.85
2019-06-08T08:52:01.812Z,45.64
2019-06-08T08:56:07.322Z,45.86
2019-06-08T09:00:13.233Z,45.86
2019-06-08T09:04:18.608Z,45.17
2019-06-08T09:08:23.621Z,44.17
2019-06-08T09:12:28.545Z,43.94
2019-06-08T09:16:33.431Z,43.27
2019-06-08T09:20:38.330Z,43.32
2019-06-08T09:24:43.247Z,43.35
2019-06-08T09:28:48.124Z,43.53
2019-06-08T09:32:54.332Z,43.39
2019-06-08T09:37:01.361Z,43.05
2019-06-08T09:41:08.784Z,43.71
2019-06-08T09:45:12.964Z,43.99
2019-06-08T09:49:18.741Z,43.88
2019-06-08T09:53:34.159Z,43.82
2019-06-08T09:57:30.545Z,44.09
2019-06-08T10:01:35.446Z,44.09
2019-06-08T10:05:40.336Z,43.32
2019-06-08T10:09:47.382Z,43.16
2019-06-08T10:13:51.838Z,42.28
2019-06-08T10:17:56.915Z,41.88
2019-06-08T10:22:03.047Z,42.21
2019-06-08T10:26:07.960Z,43.03
2019-06-08T10:30:13.303Z,46.95
2019-06-08T10:34:18.193Z,46.22
2019-06-08T10:38:23.094Z,45.50
2019-06-08T10:42:27.997Z,43.89
2019-06-08T10:46:32.896Z,44.61
2019-06-08T10:50:37.792Z,43.89
2019-06-08T10:54:42.697Z,45.60
2019-06-08T10:58:49.699Z,42.52
2019-06-08T11:02:54.183Z,43.51
2019-06-08T11:07:04.292Z,42.15
2019-06-08T11:11:11.541Z,41.34
2019-06-08T11:15:12.593Z,40.97
2019-06-08T11:19:18.701Z,42.03
2019-06-08T11:23:23.705Z,41.84
2019-06-08T11:27:28.699Z,40.37
2019-06-08T11:31:33.582Z,40.46
2019-06-08T11:35:39.233Z,41.75
2019-06-08T11:39:44.138Z,41.07
2019-06-08T11:43:49.030Z,39.82
2019-06-08T11:47:53.939Z,41.51
2019-06-08T11:52:00.365Z,42.12
2019-06-08T11:56:07.238Z,41.84
2019-06-08T12:00:26.772Z,40.71
2019-06-08T12:04:21.832Z,40.02
2019-06-08T12:08:28.466Z,40.32
2019-06-08T12:12:33.336Z,41.56
2019-06-08T12:16:38.234Z,39.87
2019-06-08T12:20:43.135Z,39.73
2019-06-08T12:24:48.037Z,40.90
2019-06-08T12:28:52.935Z,39.73
2019-06-08T12:32:58.230Z,40.15
2019-06-08T12:37:03.121Z,39.26
2019-06-08T12:41:09.617Z,38.68
2019-06-08T12:45:15.465Z,40.58
2019-06-08T12:49:20.587Z,39.80
2019-06-08T12:53:25.485Z,38.26
2019-06-08T12:57:30.419Z,38.31
2019-06-08T13:01:35.298Z,38.21
2019-06-08T13:05:40.207Z,38.84
2019-06-08T13:09:45.112Z,40.16
2019-06-08T13:13:50.022Z,38.05
2019-06-08T13:17:54.959Z,38.42
2019-06-08T13:21:59.842Z,38.17
2019-06-08T13:26:04.874Z,37.71
2019-06-08T13:30:11.547Z,37.81
2019-06-08T13:34:20.655Z,37.69
2019-06-08T13:38:23.451Z,36.89
2019-06-08T13:42:29.413Z,37.44
2019-06-08T13:46:34.339Z,38.10
2019-06-08T13:50:39.244Z,37.34
2019-06-08T13:54:44.170Z,36.87
2019-06-08T13:58:49.070Z,37.28
2019-06-08T14:02:53.955Z,38.31
2019-06-08T14:06:58.879Z,38.45
2019-06-08T14:11:03.779Z,38.97
2019-06-08T14:15:08.937Z,38.05
2019-06-08T14:19:13.826Z,37.02
2019-06-08T14:23:21.256Z,36.70
2019-06-08T14:27:25.520Z,37.93
2019-06-08T14:31:32.160Z,38.64
2019-06-08T14:35:37.198Z,38.20
2019-06-08T14:39:42.104Z,39.17
2019-06-08T14:43:48.263Z,38.86
2019-06-08T14:47:54.571Z,40.21
2019-06-08T14:51:59.473Z,38.63
2019-06-08T14:56:08.488Z,37.46
2019-06-08T15:00:12.238Z,37.81
2019-06-08T15:04:20.267Z,38.44
2019-06-08T15:08:23.976Z,40.10
2019-06-08T15:12:31.339Z,39.72
2019-06-08T15:16:35.488Z,38.13
2019-06-08T15:20:40.390Z,37.97
2019-06-08T15:24:45.288Z,38.65
2019-06-08T15:28:50.754Z,38.49
2019-06-08T15:32:55.661Z,37.56
2019-06-08T15:37:00.562Z,38.12
2019-06-08T15:41:07.685Z,38.15
2019-06-08T15:45:12.560Z,36.21
2019-06-08T15:49:18.629Z,37.55
2019-06-08T15:53:24.345Z,38.45
2019-06-08T15:57:33.074Z,37.02
2019-06-08T16:01:36.967Z,37.63
2019-06-08T16:05:41.792Z,38.33
2019-06-08T16:09:46.687Z,38.48
2019-06-08T16:13:52.657Z,36.73
2019-06-08T16:17:58.629Z,37.80
2019-06-08T16:22:03.601Z,37.25
2019-06-08T16:26:08.491Z,36.80
2019-06-08T16:30:13.856Z,38.26
2019-06-08T16:34:18.758Z,38.10
2019-06-08T16:38:23.655Z,37.39
2019-06-08T16:42:28.556Z,38.68
2019-06-08T16:46:34.812Z,37.44
2019-06-08T16:50:40.700Z,37.93
2019-06-08T16:54:45.599Z,37.36
2019-06-08T16:58:50.505Z,37.78
2019-06-08T17:02:55.414Z,37.22
2019-06-08T17:07:01.375Z,38.62
2019-06-08T17:11:06.717Z,38.33
2019-06-08T17:15:12.440Z,39.36
2019-06-08T17:19:17.370Z,38.52
2019-06-08T17:23:22.267Z,39.87
2019-06-08T17:27:27.383Z,40.16
2019-06-08T17:31:33.005Z,39.29
2019-06-08T17:35:37.960Z,40.42
2019-06-08T17:39:42.898Z,40.60
2019-06-08T17:43:47.795Z,41.10
2019-06-08T17:47:52.678Z,40.63
2019-06-08T17:51:57.598Z,40.63
2019-06-08T17:56:02.497Z,41.53
2019-06-08T18:00:08.846Z,41.94
2019-06-08T18:04:14.374Z,41.29
2019-06-08T18:08:19.341Z,41.50
2019-06-08T18:12:24.238Z,41.73
2019-06-08T18:16:29.303Z,41.53
2019-06-08T18:20:34.322Z,42.10
2019-06-08T18:24:40.869Z,42.69
2019-06-08T18:28:48.345Z,42.16
2019-06-08T18:32:52.376Z,42.66
2019-06-08T18:36:57.960Z,42.99
2019-06-08T18:41:02.957Z,42.61
2019-06-08T18:45:08.193Z,42.00
2019-06-08T18:49:13.076Z,42.67
2019-06-08T18:53:19.211Z,42.28
2019-06-08T18:57:27.423Z,42.92
2019-06-08T19:01:31.735Z,42.30
2019-06-08T19:05:40.203Z,42.42
2019-06-08T19:09:46.012Z,42.69
2019-06-08T19:13:52.621Z,43.36
2019-06-08T19:17:57.829Z,43.75
2019-06-08T19:22:03.870Z,44.53
2019-06-08T19:26:09.842Z,44.72
2019-06-08T19:30:14.981Z,45.46
2019-06-08T19:34:19.873Z,45.26
2019-06-08T19:38:24.767Z,45.80
2019-06-08T19:42:39.147Z,46.32
2019-06-08T19:46:36.268Z,46.82
2019-06-08T19:50:41.696Z,47.18
2019-06-08T19:54:52.459Z,47.92
2019-06-08T19:59:01.699Z,48.29
2019-06-08T20:03:00.818Z,48.58
2019-06-08T20:07:08.474Z,50.79
2019-06-08T20:11:12.320Z,49.69
2019-06-08T20:15:18.382Z,49.55
2019-06-08T20:19:23.454Z,49.71
2019-06-08T20:23:28.348Z,50.34
2019-06-08T20:27:33.245Z,50.69
2019-06-08T20:31:38.982Z,52.49
2019-06-08T20:35:43.925Z,53.79
2019-06-08T20:40:04.266Z,53.93
2019-06-08T20:43:57.783Z,54.58
2019-06-08T20:48:02.024Z,54.55
2019-06-08T20:52:08.603Z,54.70
2019-06-08T20:56:13.593Z,54.93
2019-06-08T21:00:18.816Z,54.88
2019-06-08T21:04:23.724Z,54.72
2019-06-08T21:08:28.623Z,55.13
2019-06-08T21:12:33.520Z,55.13
2019-06-08T21:16:38.431Z,55.53
2019-06-08T21:20:43.305Z,56.05
2019-06-08T21:24:51.793Z,56.76
2019-06-08T21:28:56.630Z,57.59
2019-06-08T21:33:01.385Z,57.63
2019-06-08T21:37:06.276Z,58.51
2019-06-08T21:41:11.167Z,59.61
2019-06-08T21:45:18.736Z,59.86
2019-06-08T21:49:22.729Z,58.79
2019-06-08T21:53:27.669Z,58.46
2019-06-08T21:57:32.514Z,57.94
2019-06-08T22:01:37.816Z,58.21
2019-06-08T22:05:42.723Z,58.95
2019-06-08T22:09:48.096Z,59.90
2019-06-08T22:13:53.044Z,60.64
2019-06-08T22:18:00.161Z,61.04
2019-06-08T22:22:04.622Z,61.45
2019-06-08T22:26:09.519Z,63.00
2019-06-08T22:30:32.413Z,64.04
2019-06-08T22:34:21.364Z,64.81
2019-06-08T22:38:26.252Z,65.27
2019-06-08T22:42:31.149Z,65.75
2019-06-08T22:46:37.557Z,66.06
2019-06-08T22:50:42.634Z,66.35
2019-06-08T22:54:47.693Z,66.73
2019-06-08T22:58:54.255Z,67.01
2019-06-08T23:03:02.267Z,67.21
2019-06-08T23:07:06.973Z,67.28
2019-06-08T23:11:12.455Z,67.07
2019-06-08T23:15:18.374Z,67.90
2019-06-08T23:19:26.304Z,68.74
2019-06-08T23:23:29.994Z,68.48
2019-06-08T23:27:34.895Z,68.12
2019-06-08T23:31:39.793Z,68.36
2019-06-08T23:36:27.466Z,69.52
2019-06-08T23:39:51.716Z,70.98
2019-06-08T23:43:57.457Z,71.23
2019-06-08T23:48:02.833Z,71.23
2019-06-08T23:52:10.420Z,70.77
2019-06-08T23:56:14.518Z,70.44
